Погода Камень-Краеньскина 2 недели

Куявско-Поморское воеводство, Польша

19 июля-01 августа
  • 19июля
    Сегодня
    +12°
    +24°
    Облачно с прояснениями
    ВремяПогодаТемператураВлажностьДавлениеВетер, м/сВероятность осадков
    02:00Практически безоблачно+14°C93 %754 мм2.0 м/с2 %
    05:00Ясно и безоблачно+13°C96 %754 мм1.9 м/с2 %
    08:00Ясно и безоблачно+18°C79 %754 мм1.5 м/с2 %
    11:00Небольшая облачность+22°C60 %754 мм3.6 м/с2 %
    14:00Облачно с прояснениями+24°C51 %753 мм3.0 м/с2 %
    17:00Небольшая облачность+24°C52 %752 мм3.0 м/с2 %
    20:00Ясно и безоблачно+22°C74 %751 мм1.3 м/с2 %
    23:00Ясно и безоблачно+17°C88 %751 мм1.8 м/с2 %
  • 20июля
    Суббота
    +14°
    +26°
    Ясно и безоблачно
    ВремяПогодаТемператураВлажностьДавлениеВетер, м/сВероятность осадков
    02:00Облачно с прояснениями+14°C94 %750 мм1.6 м/с2 %
    05:00Облачно с прояснениями+13°C99 %749 мм1.1 м/с2 %
    08:00Небольшая облачность+19°C86 %749 мм0.8 м/с2 %
    11:00Ясно и безоблачно+23°C57 %748 мм1.6 м/с2 %
    14:00Ясно и безоблачно+25°C46 %748 мм1.6 м/с2 %
    17:00Ясно и безоблачно+25°C41 %747 мм1.4 м/с2 %
    20:00Ясно и безоблачно+23°C68 %746 мм1.7 м/с2 %
    23:00Ясно и безоблачно+18°C68 %746 мм2.9 м/с2 %
  • 21июля
    Воскресенье
    +16°
    +28°
    Практически безоблачно
    ВремяПогодаТемператураВлажностьДавлениеВетер, м/сВероятность осадков
    02:00Ясно и безоблачно+16°C92 %745 мм2.1 м/с2 %
    05:00Ясно и безоблачно+14°C94 %745 мм1.7 м/с2 %
    08:00Ясно и безоблачно+19°C79 %745 мм1.8 м/с2 %
    11:00Ясно и безоблачно+25°C57 %745 мм1.7 м/с2 %
    14:00Практически безоблачно+27°C47 %744 мм1.4 м/с2 %
    17:00Облачно с прояснениями+27°C42 %744 мм1.3 м/с2 %
    20:00Облачно с прояснениями+25°C61 %744 мм2.2 м/с2 %
    23:00Ясно и безоблачно+20°C69 %744 мм3.7 м/с2 %
  • 22июля
    Понедельник
    +14°
    +27°
    Небольшая облачность
    ВремяПогодаТемператураВлажностьДавлениеВетер, м/сВероятность осадков
    02:00Ясно и безоблачно+18°C78 %744 мм3.4 м/с2 %
    05:00Ясно и безоблачно+17°C89 %744 мм2.2 м/с3 %
    08:00Ясно и безоблачно+20°C77 %744 мм2.0 м/с10 %
    11:00Небольшая облачность+24°C54 %744 мм2.6 м/с28 %
    14:00Небольшая облачность+27°C42 %744 мм1.8 м/с41 %
    17:00Пасмурно, небольшой дождь+24°C54 %744 мм3.8 м/с50 %
    20:00Облачно с прояснениями, ливень+22°C85 %745 мм3.4 м/с40 %
    23:00Пасмурно, небольшой дождь+17°C92 %746 мм4.4 м/с24 %
  • 23июля
    Вторник
    +14°
    +23°
    Ясно и безоблачно
    ВремяПогодаТемператураВлажностьДавлениеВетер, м/сВероятность осадков
    02:00Практически безоблачно+16°C91 %747 мм4.7 м/с23 %
    05:00Ясно и безоблачно+15°C96 %747 мм4.2 м/с24 %
    08:00Небольшая облачность+17°C81 %748 мм4.9 м/с26 %
    11:00Практически безоблачно+20°C64 %748 мм3.6 м/с41 %
    14:00Ясно и безоблачно+22°C52 %748 мм3.4 м/с47 %
    17:00Ясно и безоблачно+22°C51 %747 мм3.2 м/с34 %
    20:00Ясно и безоблачно+21°C66 %747 мм1.5 м/с21 %
    23:00Ясно и безоблачно+16°C79 %747 мм2.0 м/с18 %
Мы используем cookies
Соглашаюсь